Time;durP1;ratioP1;P1;durP2;ratioP2;P2;SDS_P1;SDS_P2;PMS_P1;PMS_P2;Temp;Humidity;BMP_temperature;BMP_pressure;BME280_temperature;BME280_humidity;BME280_pressure;Samples;Min_cycle;Max_cycle;Signal;HPM_P1;HPM_P2
2021/12/08 00:00:30;;;;;;;;;;;;;;;-144.99;100.00;52664.16;5092873;28;19976;-62
2021/12/08 00:02:57;;;;;;;;;;;;;;;-144.99;100.00;52639.69;5090994;28;20002;-62
2021/12/08 00:05:23;;;;;;;;;;;;;;;-144.99;100.00;52680.47;5104551;28;20039;-62
2021/12/08 00:07:50;;;;;;;;;;;;;;;-144.99;100.00;52668.22;5102211;28;19976;-62
2021/12/08 00:10:40;;;;;;;;;;;;;;;-144.99;100.00;52656.00;5092382;28;19996;-62
2021/12/08 00:13:07;;;;;;;;;;;;;;;-144.99;100.00;52678.44;5092498;28;20032;-62
2021/12/08 00:15:34;;;;;;;;;;;;;;;-144.99;100.00;52700.84;5102003;28;19980;-63
2021/12/08 00:18:01;;;;;;;;;;;;;;;-144.99;100.00;52668.22;5103736;28;19999;-65
2021/12/08 00:20:31;;;;;;;;;;;;;;;-144.99;100.00;52676.38;5105046;28;19977;-62
2021/12/08 00:22:57;;;;;;;;;;;;;;;-144.99;100.00;52658.03;5106971;28;19935;-62
2021/12/08 00:25:23;;;;;;;;;;;;;;;-144.99;100.00;52656.00;5105566;28;20083;-62
2021/12/08 00:27:50;;;;;;;;;;;;;;;-144.99;100.00;52706.97;5106667;28;20031;-62
2021/12/08 00:30:18;;;;;;;;;;;;;;;-144.99;100.00;52656.00;5103885;28;19992;-63
2021/12/08 00:32:45;;;;;;;;;;;;;;;-144.99;100.00;52647.84;5102698;28;19983;-62
2021/12/08 00:35:12;;;;;;;;;;;;;;;-144.99;100.00;52660.09;5101796;28;20044;-63
2021/12/08 00:37:39;;;;;;;;;;;;;;;-144.99;100.00;52674.34;5101500;28;20225;-62
2021/12/08 00:40:07;;;;;;;;;;;;;;;-144.99;100.00;52668.22;5102444;28;19977;-62
2021/12/08 00:42:33;;;;;;;;;;;;;;;-144.99;100.00;52688.63;5102118;28;19981;-62
2021/12/08 00:45:00;;;;;;;;;;;;;;;-144.99;100.00;52668.22;5102275;28;20002;-62
2021/12/08 00:47:28;;;;;;;;;;;;;;;-144.99;100.00;52647.84;5102969;28;19998;-62
2021/12/08 00:49:54;;;;;;;;;;;;;;;-144.99;100.00;52680.47;5089388;28;19993;-62
2021/12/08 00:52:20;;;;;;;;;;;;;;;-144.99;100.00;52651.94;5096780;28;19987;-64
2021/12/08 00:54:47;;;;;;;;;;;;;;;-144.99;100.00;52649.88;5094372;28;19978;-65
2021/12/08 00:57:14;;;;;;;;;;;;;;;-144.99;100.00;52651.94;5095343;28;19977;-65
2021/12/08 00:59:41;;;;;;;;;;;;;;;-144.99;100.00;52664.16;5088954;28;19972;-65
2021/12/08 01:02:07;;;;;;;;;;;;;;;-144.99;100.00;52639.69;5092105;28;19980;-65
2021/12/08 01:04:35;;;;;;;;;;;;;;;-144.99;100.00;52692.69;5089341;28;19973;-65
2021/12/08 01:07:01;;;;;;;;;;;;;;;-144.99;100.00;52684.53;5093003;28;19998;-65
2021/12/08 01:09:28;;;;;;;;;;;;;;;-144.99;100.00;52713.09;5089532;28;19977;-65
2021/12/08 01:11:55;;;;;;;;;;;;;;;-144.99;100.00;52692.69;5092082;28;19977;-66
2021/12/08 01:14:22;;;;;;;;;;;;;;;-144.99;100.00;52664.16;5091030;28;19993;-66
2021/12/08 01:16:48;;;;;;;;;;;;;;;-144.99;100.00;52688.63;5092003;28;20139;-65
2021/12/08 01:19:15;;;;;;;;;;;;;;;-144.99;100.00;52674.34;5090254;28;19972;-65
2021/12/08 01:21:42;;;;;;;;;;;;;;;-144.99;100.00;52635.63;5091598;28;19977;-65
2021/12/08 01:24:10;;;;;;;;;;;;;;;-144.99;100.00;52639.69;5090071;28;20097;-65
2021/12/08 01:26:36;;;;;;;;;;;;;;;-144.99;100.00;52664.16;5091884;28;19987;-68
2021/12/08 01:29:03;;;;;;;;;;;;;;;-144.99;100.00;52674.34;5089366;28;19984;-69
2021/12/08 01:31:29;;;;;;;;;;;;;;;-144.99;100.00;52668.22;5089673;28;19993;-69
2021/12/08 01:33:56;;;;;;;;;;;;;;;-144.99;100.00;52680.47;5090961;28;20004;-69
2021/12/08 01:36:23;;;;;;;;;;;;;;;-144.99;100.00;52700.84;5091691;28;19976;-69
2021/12/08 01:38:50;;;;;;;;;;;;;;;-144.99;100.00;52700.84;5091364;28;19977;-69
2021/12/08 01:41:17;;;;;;;;;;;;;;;-144.99;100.00;52700.84;5089644;28;19981;-68
2021/12/08 01:45:57;;;;;;;;;;;;;;;-144.99;100.00;52704.94;5090638;28;20364;-69
2021/12/08 01:46:30;;;;;;;;;;;;;;;-144.99;100.00;52680.47;5091131;28;19969;-68
2021/12/08 01:48:56;;;;;;;;;;;;;;;-144.99;100.00;52680.47;5086640;28;19980;-66
2021/12/08 01:51:25;;;;;;;;;;;;;;;-144.99;100.00;52686.59;5090279;28;20377;-66
2021/12/08 01:53:54;;;;;;;;;;;;;;;-144.99;100.00;52694.72;5091640;28;20054;-66
2021/12/08 01:56:22;;;;;;;;;;;;;;;-144.99;100.00;52668.22;5090419;28;19977;-66
2021/12/08 01:58:49;;;;;;;;;;;;;;;-144.99;100.00;52623.38;5090475;28;19984;-66
2021/12/08 02:01:17;;;;;;;;;;;;;;;-144.99;100.00;52684.53;5089232;28;19977;-66
2021/12/08 02:03:44;;;;;;;;;;;;;;;-144.99;100.00;52631.53;5090449;28;20423;-66
2021/12/08 02:06:11;;;;;;;;;;;;;;;-144.99;100.00;52664.16;5088623;28;20266;-67
2021/12/08 02:08:38;;;;;;;;;;;;;;;-144.99;100.00;52662.13;5090798;28;19976;-65
2021/12/08 02:11:06;;;;;;;;;;;;;;;-144.99;100.00;52645.81;5088735;28;19989;-65
2021/12/08 02:13:37;;;;;;;;;;;;;;;-144.99;100.00;52680.47;5089856;28;19992;-64
2021/12/08 02:16:06;;;;;;;;;;;;;;;-144.99;100.00;52674.34;5090211;28;20027;-65
2021/12/08 02:18:32;;;;;;;;;;;;;;;-144.99;100.00;52668.22;5090642;28;19977;-65
2021/12/08 02:21:00;;;;;;;;;;;;;;;-144.99;100.00;52656.00;5089507;28;19977;-65
2021/12/08 02:23:26;;;;;;;;;;;;;;;-144.99;100.00;52670.28;5087751;28;20397;-65
2021/12/08 02:25:53;;;;;;;;;;;;;;;-144.99;100.00;52676.38;5089867;28;20012;-64
2021/12/08 02:28:19;;;;;;;;;;;;;;;-144.99;100.00;52684.53;5090774;28;19991;-64
2021/12/08 02:30:50;;;;;;;;;;;;;;;-144.99;100.00;52635.63;5090224;28;20360;-64
2021/12/08 02:47:09;;;;;;;;;;;;;;;-144.99;100.00;52702.88;5092351;28;20014;-65
2021/12/08 02:49:36;;;;;;;;;;;;;;;-144.99;100.00;52688.63;5093601;28;19977;-65
2021/12/08 02:52:06;;;;;;;;;;;;;;;-144.99;99.65;52641.72;5085335;28;20528;-65
2021/12/08 02:54:37;;;;;;;;;;;;;;;-144.99;99.50;52692.69;5093083;28;20282;-63
2021/12/08 02:57:03;;;;;;;;;;;;;;;-144.99;99.69;52639.69;5094666;28;19987;-63
2021/12/08 02:59:30;;;;;;;;;;;;;;;-144.99;99.20;52676.38;5103636;28;20035;-62
2021/12/08 03:01:56;;;;;;;;;;;;;;;-144.99;99.20;52668.22;5116922;28;19983;-63
2021/12/08 03:04:22;;;;;;;;;;;;;;;-144.99;98.94;52668.22;5114338;28;19981;-63
2021/12/08 03:06:49;;;;;;;;;;;;;;;-144.99;98.26;52704.94;5116084;28;19992;-63
2021/12/08 03:09:17;;;;;;;;;;;;;;;-144.99;97.74;52660.09;5115430;28;19976;-63
2021/12/08 03:11:43;;;;;;;;;;;;;;;-144.99;97.95;52619.31;5114792;28;20019;-65
2021/12/08 03:14:11;;;;;;;;;;;;;;;-144.99;97.03;52649.88;5098945;28;20444;-65
2021/12/08 03:16:40;;;;;;;;;;;;;;;-144.99;96.49;52631.53;5094232;28;19988;-66
2021/12/08 03:19:07;;;;;;;;;;;;;;;-144.99;96.57;52670.28;5092800;28;19976;-65
2021/12/08 03:21:34;;;;;;;;;;;;;;;-144.99;96.13;52656.00;5093351;28;19977;-66
2021/12/08 03:24:15;;;;;;;;;;;;;;;-144.99;96.39;52676.38;5091962;28;19999;-65
2021/12/08 03:26:50;;;;;;;;;;;;;;;-144.99;95.93;52664.16;5088179;28;19984;-66
2021/12/08 03:29:26;;;;;;;;;;;;;;;-144.99;95.99;52647.84;5085894;28;20059;-66
2021/12/08 03:31:54;;;;;;;;;;;;;;;-144.99;95.79;52643.78;5091768;28;19992;-64
2021/12/08 03:34:24;;;;;;;;;;;;;;;-144.99;95.69;52656.00;5090929;28;19996;-64
2021/12/08 03:36:51;;;;;;;;;;;;;;;-144.99;95.54;52664.16;5090426;28;20425;-65
2021/12/08 03:39:18;;;;;;;;;;;;;;;-144.99;95.73;52676.38;5092768;28;19980;-65
2021/12/08 03:41:46;;;;;;;;;;;;;;;-144.99;95.82;52678.44;5092419;28;20060;-69
2021/12/08 03:44:12;;;;;;;;;;;;;;;-144.99;95.65;52651.94;5090092;28;19993;-70
2021/12/08 03:46:41;;;;;;;;;;;;;;;-144.99;95.31;52696.78;5092425;28;19987;-69
2021/12/08 03:49:10;;;;;;;;;;;;;;;-144.99;95.89;52709.00;5086570;28;19987;-61
2021/12/08 03:51:37;;;;;;;;;;;;;;;-144.99;96.10;52619.31;5091087;28;19999;-63
2021/12/08 03:54:03;;;;;;;;;;;;;;;-144.99;95.79;52656.00;5090784;28;20419;-65
2021/12/08 03:56:30;;;;;;;;;;;;;;;-144.99;95.26;52662.13;5090816;28;19999;-64
2021/12/08 03:58:58;;;;;;;;;;;;;;;-144.99;95.00;52680.47;5091883;28;20441;-63
2021/12/08 04:01:24;;;;;;;;;;;;;;;-144.99;95.42;52647.84;5092138;28;19947;-63
2021/12/08 04:03:51;;;;;;;;;;;;;;;-144.99;94.97;52670.28;5091626;28;20000;-63
2021/12/08 04:06:29;;;;;;;;;;;;;;;-144.99;94.70;52619.31;5090777;28;19977;-63
2021/12/08 04:08:56;;;;;;;;;;;;;;;-144.99;94.88;52674.34;5091870;28;20451;-63
2021/12/08 04:11:23;;;;;;;;;;;;;;;-144.99;94.87;52670.28;5092115;28;20464;-63
2021/12/08 04:13:52;;;;;;;;;;;;;;;-144.99;94.15;52641.72;5091492;28;19999;-63
2021/12/08 04:16:22;;;;;;;;;;;;;;;-144.99;94.16;52647.84;5090022;28;20075;-63
2021/12/08 04:18:49;;;;;;;;;;;;;;;-144.99;93.68;52672.31;5091528;28;19977;-62
2021/12/08 04:21:16;;;;;;;;;;;;;;;-144.99;94.03;52611.16;5091702;28;20452;-63
2021/12/08 04:23:43;;;;;;;;;;;;;;;-144.99;94.29;52668.22;5093277;28;20495;-63
2021/12/08 04:26:12;;;;;;;;;;;;;;;-144.99;96.38;52700.84;5085717;28;19977;-63
2021/12/08 04:28:39;;;;;;;;;;;;;;;-144.99;99.27;52647.84;5093926;28;19966;-65
2021/12/08 04:31:08;;;;;;;;;;;;;;;-144.99;100.00;52660.09;5093507;28;20150;-64
2021/12/08 04:33:36;;;;;;;;;;;;;;;-144.99;100.00;52664.16;5091811;28;19992;-63
2021/12/08 04:36:03;;;;;;;;;;;;;;;-144.99;100.00;52676.38;5090661;28;19983;-63
2021/12/08 04:38:36;;;;;;;;;;;;;;;-144.99;100.00;52684.53;5091318;28;19983;-62
2021/12/08 04:41:07;;;;;;;;;;;;;;;-144.99;100.00;52664.16;5091971;28;20076;-63
2021/12/08 04:43:40;;;;;;;;;;;;;;;-144.99;100.00;52704.94;5091615;28;20027;-62
2021/12/08 04:46:15;;;;;;;;;;;;;;;-144.99;100.00;52684.53;5091409;28;20185;-63
2021/12/08 04:49:03;;;;;;;;;;;;;;;-144.99;100.00;52664.16;5090157;28;19984;-64
2021/12/08 04:51:43;;;;;;;;;;;;;;;-144.99;100.00;52692.69;5081958;28;20363;-64
2021/12/08 05:02:41;;;;;;;;;;;;;;;-144.99;100.00;52668.22;5087197;28;20015;-63
2021/12/08 05:05:21;;;;;;;;;;;;;;;-144.99;100.00;52717.16;5090118;28;19996;-63
2021/12/08 05:07:53;;;;;;;;;;;;;;;-144.99;100.00;52684.53;5087581;28;20242;-64
2021/12/08 05:10:22;;;;;;;;;;;;;;;-144.99;100.00;52709.00;5091567;28;19980;-64
2021/12/08 05:12:50;;;;;;;;;;;;;;;-144.99;100.00;52668.22;5090966;28;19992;-64
2021/12/08 05:15:18;;;;;;;;;;;;;;;-144.99;100.00;52668.22;5090821;28;20234;-64
2021/12/08 05:17:46;;;;;;;;;;;;;;;-144.99;100.00;52664.16;5089942;28;20336;-64
2021/12/08 05:20:16;;;;;;;;;;;;;;;-144.99;100.00;52676.38;5091011;28;19976;-63
2021/12/08 05:22:46;;;;;;;;;;;;;;;-144.99;100.00;52672.31;5087527;28;19999;-63
2021/12/08 05:25:13;;;;;;;;;;;;;;;-144.99;100.00;52692.69;5087748;28;19981;-63
2021/12/08 05:27:44;;;;;;;;;;;;;;;-144.99;100.00;52658.03;5091019;28;19984;-63
2021/12/08 05:30:13;;;;;;;;;;;;;;;-144.99;100.00;52711.03;5090044;28;19977;-63
2021/12/08 05:32:40;;;;;;;;;;;;;;;-144.99;100.00;52725.31;5091193;28;20000;-65
2021/12/08 05:35:08;;;;;;;;;;;;;;;-144.99;100.00;52668.22;5090387;28;19998;-63
2021/12/08 05:37:36;;;;;;;;;;;;;;;-144.99;100.00;52656.00;5090977;28;20048;-63
2021/12/08 05:40:05;;;;;;;;;;;;;;;-144.99;100.00;52680.47;5090649;28;19983;-63
2021/12/08 05:42:33;;;;;;;;;;;;;;;-144.99;100.00;52700.84;5099203;28;19981;-63
2021/12/08 05:44:59;;;;;;;;;;;;;;;-144.99;100.00;52631.53;5104373;28;19993;-63
2021/12/08 05:47:28;;;;;;;;;;;;;;;-144.99;100.00;52656.00;5095703;28;19983;-65
2021/12/08 05:49:55;;;;;;;;;;;;;;;-144.99;100.00;52653.97;5098040;28;19971;-63
2021/12/08 05:52:22;;;;;;;;;;;;;;;-144.99;100.00;52639.69;5121473;22;20091;-65
2021/12/08 05:54:51;;;;;;;;;;;;;;;-144.99;100.00;52672.31;5109684;28;19992;-68
2021/12/08 05:57:19;;;;;;;;;;;;;;;-144.99;100.00;52651.94;5101340;28;19977;-68
2021/12/08 05:59:46;;;;;;;;;;;;;;;-144.99;100.00;52664.16;5107333;28;19976;-69
2021/12/08 06:02:15;;;;;;;;;;;;;;;-144.99;100.00;52688.63;5099580;28;19976;-69
2021/12/08 06:04:42;;;;;;;;;;;;;;;-144.99;100.00;52684.53;5107097;28;20442;-70
2021/12/08 06:07:09;;;;;;;;;;;;;;;-144.99;100.00;52676.38;4752340;28;9999859;-71
2021/12/08 06:09:37;;;;;;;;;;;;;;;-144.99;100.00;52672.31;5105106;28;19980;-70
2021/12/08 06:12:06;;;;;;;;;;;;;;;-144.99;100.00;52688.63;5106572;28;20088;-71
2021/12/08 06:14:33;;;;;;;;;;;;;;;-144.99;100.00;52721.22;5105335;27;19991;-70
2021/12/08 06:17:01;;;;;;;;;;;;;;;-144.99;100.00;52680.47;5106687;28;20219;-69
2021/12/08 06:19:27;;;;;;;;;;;;;;;-144.99;100.00;52674.34;5099813;28;19987;-69
2021/12/08 06:21:54;;;;;;;;;;;;;;;-144.99;100.00;52696.78;5107327;28;20075;-71
2021/12/08 06:24:20;;;;;;;;;;;;;;;-144.99;100.00;52684.53;5109371;28;20234;-69
2021/12/08 06:26:47;;;;;;;;;;;;;;;-144.99;100.00;52700.84;5108413;28;19976;-68
2021/12/08 06:29:17;;;;;;;;;;;;;;;-144.99;100.00;52651.94;5104668;27;20334;-68
2021/12/08 06:31:45;;;;;;;;;;;;;;;-144.99;100.00;52625.44;5102581;28;19996;-68
2021/12/08 06:34:11;;;;;;;;;;;;;;;-144.99;100.00;52680.47;5113275;27;20019;-65
2021/12/08 06:36:39;;;;;;;;;;;;;;;-144.99;100.00;52666.19;5116752;27;19983;-66
2021/12/08 06:39:07;;;;;;;;;;;;;;;-144.99;100.00;52666.19;5107127;28;19972;-66
2021/12/08 06:41:34;;;;;;;;;;;;;;;-144.99;100.00;52662.13;5108489;28;20487;-65
2021/12/08 06:44:06;;;;;;;;;;;;;;;-144.99;100.00;52709.00;5107910;28;20653;-66
2021/12/08 06:46:34;;;;;;;;;;;;;;;-144.99;100.00;52682.50;5099492;28;20330;-68
2021/12/08 06:49:01;;;;;;;;;;;;;;;-144.99;100.00;52668.22;5101599;28;20074;-66
2021/12/08 06:51:33;;;;;;;;;;;;;;;-144.99;100.00;52672.31;5108568;27;19958;-68
2021/12/08 06:54:02;;;;;;;;;;;;;;;-144.99;100.00;52666.19;5106856;28;20004;-67
2021/12/08 06:56:30;;;;;;;;;;;;;;;-144.99;100.00;52676.38;5106000;28;20167;-66
2021/12/08 06:58:59;;;;;;;;;;;;;;;-144.99;100.00;52623.38;5105446;28;19992;-67
2021/12/08 07:01:37;;;;;;;;;;;;;;;-144.99;100.00;52676.38;5118615;27;19976;-67
2021/12/08 07:04:12;;;;;;;;;;;;;;;-144.99;100.00;52696.78;5099358;27;20006;-66
2021/12/08 07:06:48;;;;;;;;;;;;;;;-144.99;100.00;52704.94;5102626;28;20037;-67
2021/12/08 07:09:15;;;;;;;;;;;;;;;-144.99;100.00;52684.53;5110555;27;19979;-66
2021/12/08 07:11:42;;;;;;;;;;;;;;;-144.99;100.00;52702.88;5111231;27;19996;-66
2021/12/08 07:14:09;;;;;;;;;;;;;;;-144.99;100.00;52660.09;5105965;28;20269;-67
2021/12/08 07:16:37;;;;;;;;;;;;;;;-144.99;100.00;52680.47;5108014;28;19986;-66
2021/12/08 07:19:10;;;;;;;;;;;;;;;-144.99;100.00;52656.00;5106343;28;19987;-66
2021/12/08 07:21:40;;;;;;;;;;;;;;;-144.99;100.00;52668.22;5106665;27;19991;-68
2021/12/08 07:24:09;;;;;;;;;;;;;;;-144.99;100.00;52664.16;5110479;28;19988;-66
2021/12/08 07:26:38;;;;;;;;;;;;;;;-144.99;100.00;52643.78;5108319;28;19981;-66
2021/12/08 07:29:06;;;;;;;;;;;;;;;-144.99;100.00;52713.09;5106139;28;20416;-66
2021/12/08 07:31:34;;;;;;;;;;;;;;;-144.99;100.00;52660.09;5108400;27;19996;-67
2021/12/08 07:34:04;;;;;;;;;;;;;;;-144.99;100.00;52660.09;5107602;27;20003;-67
2021/12/08 07:36:34;;;;;;;;;;;;;;;-144.99;100.00;52713.09;5104936;28;19980;-67
2021/12/08 07:39:00;;;;;;;;;;;;;;;-144.99;100.00;52660.09;5107532;28;20448;-66
2021/12/08 07:41:30;;;;;;;;;;;;;;;-144.99;100.00;52660.09;5107413;27;19988;-66
2021/12/08 07:43:59;;;;;;;;;;;;;;;-144.99;100.00;52680.47;5107260;28;19992;-66
2021/12/08 07:46:28;;;;;;;;;;;;;;;-144.99;100.00;52668.22;5099702;28;19976;-66
2021/12/08 07:48:56;;;;;;;;;;;;;;;-144.99;100.00;52704.94;5098339;28;19981;-66
2021/12/08 07:51:29;;;;;;;;;;;;;;;-144.99;100.00;52713.09;5106951;27;19998;-68
2021/12/08 07:53:56;;;;;;;;;;;;;;;-144.99;100.00;52684.53;5109665;27;20349;-66
2021/12/08 07:56:24;;;;;;;;;;;;;;;-144.99;100.00;52653.97;5107716;28;19986;-66
2021/12/08 07:58:53;;;;;;;;;;;;;;;-144.99;100.00;52690.66;5106221;28;20414;-66
2021/12/08 08:01:22;;;;;;;;;;;;;;;-144.99;100.00;52645.81;5106120;28;19980;-66
2021/12/08 08:03:48;;;;;;;;;;;;;;;-144.99;100.00;52660.09;5104532;28;20003;-66
2021/12/08 08:06:16;;;;;;;;;;;;;;;-144.99;100.00;52647.84;5103215;28;19945;-66
2021/12/08 08:08:43;;;;;;;;;;;;;;;-144.99;100.00;52664.16;5107021;28;19984;-66
2021/12/08 08:11:12;;;;;;;;;;;;;;;-144.99;100.00;52692.69;5107927;28;19980;-67
2021/12/08 08:13:39;;;;;;;;;;;;;;;-144.99;100.00;52676.38;5106729;28;20003;-67
2021/12/08 08:16:07;;;;;;;;;;;;;;;-144.99;100.00;52666.19;5107813;28;19998;-67
2021/12/08 08:18:35;;;;;;;;;;;;;;;-144.99;100.00;52615.25;5107465;28;19972;-67
2021/12/08 08:21:04;;;;;;;;;;;;;;;-144.99;100.00;52643.78;5102541;28;19980;-68
2021/12/08 08:23:32;;;;;;;;;;;;;;;-144.99;100.00;52658.03;5100020;28;20045;-67
2021/12/08 08:26:00;;;;;;;;;;;;;;;-144.99;100.00;52684.53;5106535;28;20046;-67
2021/12/08 08:28:28;;;;;;;;;;;;;;;-144.99;100.00;52643.78;5105379;28;19967;-73
2021/12/08 08:30:55;;;;;;;;;;;;;;;-144.99;100.00;52611.16;5105975;28;19987;-68
2021/12/08 08:33:23;;;;;;;;;;;;;;;-144.99;100.00;52647.84;5107000;28;20000;-67
2021/12/08 08:35:51;;;;;;;;;;;;;;;-144.99;100.00;52647.84;5105227;28;20452;-68
2021/12/08 08:38:19;;;;;;;;;;;;;;;-144.99;100.00;52668.22;5103021;28;19984;-67
2021/12/08 08:40:48;;;;;;;;;;;;;;;-144.99;100.00;52658.03;5108453;27;20337;-68
2021/12/08 08:43:14;;;;;;;;;;;;;;;-144.99;100.00;52684.53;5105992;28;20019;-67
2021/12/08 08:45:44;;;;;;;;;;;;;;;-144.99;100.00;52668.22;5106574;28;19992;-67
2021/12/08 08:48:12;;;;;;;;;;;;;;;-144.99;100.00;52700.84;5104262;28;19995;-67
2021/12/08 08:50:40;;;;;;;;;;;;;;;-144.99;100.00;52676.38;5104186;28;19988;-67
2021/12/08 08:53:06;;;;;;;;;;;;;;;-144.99;100.00;52692.69;5105775;28;19996;-67
2021/12/08 08:55:36;;;;;;;;;;;;;;;-144.99;100.00;52668.22;5106734;28;19980;-68
2021/12/08 08:58:04;;;;;;;;;;;;;;;-144.99;100.00;52651.94;5099339;28;19983;-69
2021/12/08 09:00:33;;;;;;;;;;;;;;;-144.99;100.00;52651.94;5111123;27;19980;-68
2021/12/08 09:03:04;;;;;;;;;;;;;;;-144.99;100.00;52639.69;5103098;28;20042;-68
2021/12/08 09:05:32;;;;;;;;;;;;;;;-144.99;100.00;52672.31;5095862;28;20183;-68
2021/12/08 09:08:00;;;;;;;;;;;;;;;-144.99;100.00;52643.78;5105793;28;19984;-68
2021/12/08 09:10:28;;;;;;;;;;;;;;;-144.99;100.00;52639.69;5105480;28;19983;-68
2021/12/08 09:12:56;;;;;;;;;;;;;;;-144.99;100.00;52680.47;5105596;28;20007;-68
2021/12/08 09:15:25;;;;;;;;;;;;;;;-144.99;100.00;52664.16;5102758;28;19980;-68
2021/12/08 09:17:55;;;;;;;;;;;;;;;-144.99;100.00;52664.16;5110500;27;19988;-68
2021/12/08 09:20:27;;;;;;;;;;;;;;;-144.99;100.00;52623.38;5104342;28;20035;-68
2021/12/08 09:22:57;;;;;;;;;;;;;;;-144.99;100.00;52664.16;5106031;28;20513;-68
2021/12/08 09:25:27;;;;;;;;;;;;;;;-144.99;100.00;52647.84;5105848;28;20352;-69
2021/12/08 09:27:56;;;;;;;;;;;;;;;-144.99;100.00;52658.03;5104992;28;20184;-68
2021/12/08 09:30:24;;;;;;;;;;;;;;;-144.99;100.00;52641.72;5106000;28;20031;-68
2021/12/08 09:32:52;;;;;;;;;;;;;;;-144.99;100.00;52664.16;5105994;28;19992;-69
2021/12/08 09:35:21;;;;;;;;;;;;;;;-144.99;100.00;52651.94;5106040;28;19987;-68
2021/12/08 09:37:51;;;;;;;;;;;;;;;-144.99;100.00;52635.63;5105482;28;19976;-69
2021/12/08 09:40:22;;;;;;;;;;;;;;;-144.99;100.00;52692.69;5098982;28;20394;-68
2021/12/08 09:42:50;;;;;;;;;;;;;;;-144.99;100.00;52670.28;5106071;28;20154;-68
2021/12/08 09:45:19;;;;;;;;;;;;;;;-144.99;100.00;52631.53;5105630;28;19999;-68
2021/12/08 09:47:46;;;;;;;;;;;;;;;-144.99;100.00;52688.63;5104421;28;20385;-69
2021/12/08 09:50:14;;;;;;;;;;;;;;;-144.99;100.00;52680.47;5106114;28;19984;-68
2021/12/08 09:52:41;;;;;;;;;;;;;;;-144.99;100.00;52690.66;5108690;28;19992;-69
2021/12/08 09:55:10;;;;;;;;;;;;;;;-144.99;100.00;52706.97;5110095;28;20000;-69
2021/12/08 09:57:37;;;;;;;;;;;;;;;-144.99;100.00;52643.78;5109639;28;19988;-68
2021/12/08 10:00:05;;;;;;;;;;;;;;;-144.99;100.00;52631.53;5109477;28;20581;-69
2021/12/08 10:02:34;;;;;;;;;;;;;;;-144.99;100.00;52672.31;5110356;28;19989;-68
2021/12/08 10:05:01;;;;;;;;;;;;;;;-144.99;100.00;52656.00;5106861;28;20128;-69
2021/12/08 10:07:28;;;;;;;;;;;;;;;-144.99;100.00;52682.50;5107496;27;19991;-69
2021/12/08 10:09:55;;;;;;;;;;;;;;;-144.99;100.00;52664.16;5110123;27;19990;-68
2021/12/08 10:12:23;;;;;;;;;;;;;;;-144.99;100.00;52662.13;5112050;27;19980;-68
2021/12/08 10:14:50;;;;;;;;;;;;;;;-144.99;100.00;52639.69;5101188;28;20460;-69
2021/12/08 10:17:17;;;;;;;;;;;;;;;-144.99;100.00;52656.00;5109480;28;19984;-70
2021/12/08 10:19:44;;;;;;;;;;;;;;;-144.99;100.00;52660.09;5107104;27;19977;-69
2021/12/08 10:22:17;;;;;;;;;;;;;;;-144.99;100.00;52639.69;5102480;28;19986;-70
2021/12/08 10:25:01;;;;;;;;;;;;;;;-144.99;100.00;52615.25;5108884;28;19996;-69
2021/12/08 10:27:29;;;;;;;;;;;;;;;-144.99;100.00;52674.34;5098216;28;20468;-69
2021/12/08 10:30:15;;;;;;;;;;;;;;;-144.99;100.00;52641.72;5107833;28;20812;-69
2021/12/08 10:32:41;;;;;;;;;;;;;;;-144.99;100.00;52607.09;5109460;28;19996;-69
2021/12/08 10:35:28;;;;;;;;;;;;;;;-144.99;100.00;52639.69;5109117;28;20000;-70
2021/12/08 10:37:59;;;;;;;;;;;;;;;-144.99;100.00;52684.53;5112103;28;19990;-70
2021/12/08 10:40:25;;;;;;;;;;;;;;;-144.99;100.00;52651.94;5102473;28;19979;-70
2021/12/08 10:42:53;;;;;;;;;;;;;;;-144.99;100.00;52676.38;5107622;28;20457;-70
2021/12/08 10:45:23;;;;;;;;;;;;;;;-144.99;100.00;52647.84;5104550;28;19980;-70
2021/12/08 10:47:53;;;;;;;;;;;;;;;-144.99;100.00;52611.16;5106970;28;20020;-70
2021/12/08 10:55:51;;;;;;;;;;;;;;;-144.99;100.00;52635.63;5113254;28;19987;-69
2021/12/08 10:58:22;;;;;;;;;;;;;;;-144.99;100.00;52627.47;5110336;27;19980;-69
2021/12/08 11:00:49;;;;;;;;;;;;;;;-144.99;100.00;52664.16;5111905;27;19976;-68
2021/12/08 11:03:16;;;;;;;;;;;;;;;-144.99;100.00;52647.84;5104341;28;19996;-70
2021/12/08 11:05:46;;;;;;;;;;;;;;;-144.99;100.00;52676.38;5100263;28;20365;-68
2021/12/08 11:08:17;;;;;;;;;;;;;;;-144.99;100.00;52619.31;5105166;28;19980;-70
2021/12/08 11:10:45;;;;;;;;;;;;;;;-144.99;100.00;52664.16;5109848;28;20469;-69
2021/12/08 11:13:12;;;;;;;;;;;;;;;-144.99;100.00;52660.09;5108912;28;20008;-69
2021/12/08 11:15:40;;;;;;;;;;;;;;;-144.99;100.00;52694.72;5108420;28;19985;-68
2021/12/08 11:18:11;;;;;;;;;;;;;;;-144.99;100.00;52619.31;5108486;28;19980;-69
2021/12/08 11:20:42;;;;;;;;;;;;;;;-144.99;100.00;52635.63;5107101;27;19976;-68
2021/12/08 11:23:10;;;;;;;;;;;;;;;-144.99;100.00;52664.16;5107068;28;20041;-68
2021/12/08 11:25:39;;;;;;;;;;;;;;;-144.99;100.00;52645.81;5113255;27;19980;-69
2021/12/08 11:28:19;;;;;;;;;;;;;;;-144.99;100.00;52680.47;5109416;27;19972;-69
2021/12/08 11:30:47;;;;;;;;;;;;;;;-144.99;100.00;52623.38;5105088;28;19983;-70
2021/12/08 11:33:16;;;;;;;;;;;;;;;-144.99;100.00;52635.63;5110934;27;19996;-70
2021/12/08 11:35:43;;;;;;;;;;;;;;;-144.99;100.00;52631.53;5108618;28;19983;-69
2021/12/08 11:38:09;;;;;;;;;;;;;;;-144.99;100.00;52651.94;5108444;28;19980;-68
2021/12/08 11:40:36;;;;;;;;;;;;;;;-144.99;100.00;52684.53;5109260;28;19987;-68
2021/12/08 11:43:03;;;;;;;;;;;;;;;-144.99;100.00;52603.00;5106817;28;19999;-70
2021/12/08 11:45:36;;;;;;;;;;;;;;;-144.99;100.00;52607.09;5101996;28;19981;-69
2021/12/08 11:48:20;;;;;;;;;;;;;;;-144.99;100.00;52643.78;5107748;28;20403;-68
2021/12/08 11:50:46;;;;;;;;;;;;;;;-144.99;100.00;52694.72;5105150;28;20572;-68
2021/12/08 11:53:20;;;;;;;;;;;;;;;-144.99;100.00;52631.53;5102261;28;20003;-68
2021/12/08 11:55:46;;;;;;;;;;;;;;;-144.99;100.00;52631.53;5109129;28;19983;-69
2021/12/08 11:58:14;;;;;;;;;;;;;;;-144.99;100.00;52647.84;5108577;28;20068;-68
2021/12/08 12:00:45;;;;;;;;;;;;;;;-144.99;100.00;52627.47;5105724;28;20037;-68
2021/12/08 12:03:15;;;;;;;;;;;;;;;-144.99;100.00;52643.78;5110975;27;19992;-68
2021/12/08 12:05:42;;;;;;;;;;;;;;;-144.99;100.00;52623.38;5102833;28;20430;-69
2021/12/08 12:08:09;;;;;;;;;;;;;;;-144.99;100.00;52633.59;5103845;28;19991;-68
2021/12/08 12:10:37;;;;;;;;;;;;;;;-144.99;100.00;52688.63;5108583;27;20482;-68
2021/12/08 12:13:08;;;;;;;;;;;;;;;-144.99;100.00;52637.66;5108694;27;20003;-68
2021/12/08 12:15:34;;;;;;;;;;;;;;;-144.99;100.00;52643.78;5110734;27;19980;-68
2021/12/08 12:18:01;;;;;;;;;;;;;;;-144.99;100.00;52656.00;5109577;27;19980;-68
2021/12/08 12:20:31;;;;;;;;;;;;;;;-144.99;100.00;52647.84;5106513;28;19980;-68
2021/12/08 12:23:09;;;;;;;;;;;;;;;-144.99;100.00;52639.69;5100196;28;20033;-68
2021/12/08 12:25:43;;;;;;;;;;;;;;;-144.99;100.00;52635.63;5105977;28;20519;-67
2021/12/08 12:28:23;;;;;;;;;;;;;;;-144.99;100.00;52647.84;5100800;28;19996;-69
2021/12/08 12:30:52;;;;;;;;;;;;;;;-144.99;100.00;52607.09;5107209;28;20441;-68
2021/12/08 12:33:22;;;;;;;;;;;;;;;-144.99;100.00;52660.09;5108076;28;20049;-68
2021/12/08 12:35:50;;;;;;;;;;;;;;;-144.99;100.00;52651.94;5106348;28;20035;-69
2021/12/08 12:38:17;;;;;;;;;;;;;;;-144.99;100.00;52658.03;5105894;28;20006;-69
2021/12/08 12:40:46;;;;;;;;;;;;;;;-144.99;100.00;52639.69;5105965;28;20329;-69
2021/12/08 12:43:23;;;;;;;;;;;;;;;-144.99;100.00;52662.13;5107171;28;19999;-69
2021/12/08 12:46:01;;;;;;;;;;;;;;;-144.99;100.00;52651.94;5104676;27;19949;-68
2021/12/08 12:48:30;;;;;;;;;;;;;;;-144.99;100.00;52656.00;5107905;28;20075;-68
2021/12/08 12:51:02;;;;;;;;;;;;;;;-144.99;100.00;52664.16;5104667;28;20348;-68
2021/12/08 12:53:32;;;;;;;;;;;;;;;-144.99;100.00;52594.84;5106787;28;19996;-68